Skip Navigation Links Skip Navigation Links

Current Weather

John H Batten, Racine, Wis.

For information only: do not use for flight planning or navigation.
Latest weather
Observation time Wednesday, October 27, 2021 2:01 AM CDT
Local time Wednesday, October 27, 2021 2:21 AM CDT
Flight conditions Marginal Visual Meteorological Conditions
Winds
Wind direction East (90°)
Wind speed 8 mph
Visibility 10 mi.
Sky condition
Ceiling 2,300 ft. broken clouds
Cloud layer broken clouds 2,300 ft.
Temperature 48°F
Dewpoint 41°F
Altimeter 30.05 in.Hg
Derived measurements
Relative humidity 77%
Wind chill 44°F
Density altitude -77 ft.
Remarks
Fully automated report.
Automated weather observing station with precipitation discriminator.
METAR KRAC 270701Z AUTO 09007KT 10SM BKN023 09/05 A3005 RMK AO2 T00890050

Settings

Location code

InnerDrive.Weather 4.0.6770.0 Release CLR 4.0.30319.42000
Copyright ©2018 Inner Drive Technology. All rights reserved. Portions Copyright ©1986-2018 David Braverman.

Find weather

Site navigation


Skip Navigation Links

Place info

Page info

PayPal - The safer, easier way to pay online!

Return home.

Copyright ©2021 Inner Drive Technology. Purveyors of fine, hand-crafted computer software. Page printed 2021-10-27T07:21:14 UTC.